sensor_id;sensor_type;location;lat;lon;timestamp;P1;durP1;ratioP1;P2;durP2;ratioP2
71558;SDS011;59382;43.852;25.952;2024-02-21T00:01:46;20.88;;;9.13;;
71558;SDS011;59382;43.852;25.952;2024-02-21T00:04:11;21.92;;;10.23;;
71558;SDS011;59382;43.852;25.952;2024-02-21T00:06:37;21.25;;;10.38;;
71558;SDS011;59382;43.852;25.952;2024-02-21T00:09:02;20.88;;;9.52;;
71558;SDS011;59382;43.852;25.952;2024-02-21T00:11:28;18.30;;;10.07;;
71558;SDS011;59382;43.852;25.952;2024-02-21T00:13:54;18.30;;;9.52;;
71558;SDS011;59382;43.852;25.952;2024-02-21T00:16:19;17.63;;;8.32;;
71558;SDS011;59382;43.852;25.952;2024-02-21T00:18:45;19.08;;;8.70;;
71558;SDS011;59382;43.852;25.952;2024-02-21T00:21:11;22.83;;;10.10;;
71558;SDS011;59382;43.852;25.952;2024-02-21T00:23:43;16.83;;;8.88;;
71558;SDS011;59382;43.852;25.952;2024-02-21T00:26:14;18.70;;;8.90;;
71558;SDS011;59382;43.852;25.952;2024-02-21T00:28:39;20.17;;;10.25;;
71558;SDS011;59382;43.852;25.952;2024-02-21T00:31:05;16.40;;;9.02;;
71558;SDS011;59382;43.852;25.952;2024-02-21T00:33:31;14.23;;;7.97;;
71558;SDS011;59382;43.852;25.952;2024-02-21T00:35:56;13.85;;;7.43;;
71558;SDS011;59382;43.852;25.952;2024-02-21T00:38:22;19.30;;;9.48;;
71558;SDS011;59382;43.852;25.952;2024-02-21T00:40:47;15.57;;;9.00;;
71558;SDS011;59382;43.852;25.952;2024-02-21T00:43:13;16.35;;;9.05;;
71558;SDS011;59382;43.852;25.952;2024-02-21T00:45:39;16.67;;;9.20;;
71558;SDS011;59382;43.852;25.952;2024-02-21T00:48:04;17.10;;;8.93;;
71558;SDS011;59382;43.852;25.952;2024-02-21T00:50:30;26.58;;;9.10;;
71558;SDS011;59382;43.852;25.952;2024-02-21T00:52:56;16.77;;;8.93;;
71558;SDS011;59382;43.852;25.952;2024-02-21T00:55:21;17.38;;;8.18;;
71558;SDS011;59382;43.852;25.952;2024-02-21T00:57:47;18.50;;;10.10;;
71558;SDS011;59382;43.852;25.952;2024-02-21T01:00:12;17.38;;;8.68;;
71558;SDS011;59382;43.852;25.952;2024-02-21T01:02:38;16.90;;;8.82;;
71558;SDS011;59382;43.852;25.952;2024-02-21T01:05:04;16.35;;;8.77;;
71558;SDS011;59382;43.852;25.952;2024-02-21T01:07:31;20.13;;;8.90;;
71558;SDS011;59382;43.852;25.952;2024-02-21T01:09:56;15.13;;;8.02;;
71558;SDS011;59382;43.852;25.952;2024-02-21T01:12:22;13.57;;;8.27;;
71558;SDS011;59382;43.852;25.952;2024-02-21T01:14:47;16.85;;;8.55;;
71558;SDS011;59382;43.852;25.952;2024-02-21T01:17:14;9.10;;;6.13;;
71558;SDS011;59382;43.852;25.952;2024-02-21T01:19:40;17.98;;;8.38;;
71558;SDS011;59382;43.852;25.952;2024-02-21T01:22:05;16.20;;;8.38;;
71558;SDS011;59382;43.852;25.952;2024-02-21T01:24:31;14.88;;;9.70;;
71558;SDS011;59382;43.852;25.952;2024-02-21T01:26:56;16.30;;;8.73;;
71558;SDS011;59382;43.852;25.952;2024-02-21T01:29:22;14.18;;;7.25;;
71558;SDS011;59382;43.852;25.952;2024-02-21T01:31:47;14.25;;;8.32;;
71558;SDS011;59382;43.852;25.952;2024-02-21T01:34:13;18.50;;;9.23;;
71558;SDS011;59382;43.852;25.952;2024-02-21T01:36:38;19.60;;;8.80;;
71558;SDS011;59382;43.852;25.952;2024-02-21T01:39:04;17.83;;;9.63;;
71558;SDS011;59382;43.852;25.952;2024-02-21T01:41:30;14.70;;;8.73;;
71558;SDS011;59382;43.852;25.952;2024-02-21T01:43:56;15.30;;;8.35;;
71558;SDS011;59382;43.852;25.952;2024-02-21T01:46:22;18.85;;;8.90;;
71558;SDS011;59382;43.852;25.952;2024-02-21T01:48:48;13.38;;;7.38;;
71558;SDS011;59382;43.852;25.952;2024-02-21T01:51:14;13.60;;;7.60;;
71558;SDS011;59382;43.852;25.952;2024-02-21T01:53:42;16.38;;;8.75;;
71558;SDS011;59382;43.852;25.952;2024-02-21T01:56:09;17.83;;;9.32;;
71558;SDS011;59382;43.852;25.952;2024-02-21T01:58:36;14.77;;;8.38;;
71558;SDS011;59382;43.852;25.952;2024-02-21T02:01:04;18.55;;;9.48;;
71558;SDS011;59382;43.852;25.952;2024-02-21T02:03:29;20.55;;;9.18;;
71558;SDS011;59382;43.852;25.952;2024-02-21T02:05:55;16.80;;;9.18;;
71558;SDS011;59382;43.852;25.952;2024-02-21T02:08:21;21.73;;;9.20;;
71558;SDS011;59382;43.852;25.952;2024-02-21T02:10:50;14.07;;;8.10;;
71558;SDS011;59382;43.852;25.952;2024-02-21T02:13:17;15.65;;;7.82;;
71558;SDS011;59382;43.852;25.952;2024-02-21T02:15:49;16.10;;;8.45;;
71558;SDS011;59382;43.852;25.952;2024-02-21T02:18:15;15.05;;;8.77;;
71558;SDS011;59382;43.852;25.952;2024-02-21T02:20:42;14.30;;;8.38;;
71558;SDS011;59382;43.852;25.952;2024-02-21T02:23:25;18.80;;;8.75;;
71558;SDS011;59382;43.852;25.952;2024-02-21T02:25:51;16.25;;;8.68;;
71558;SDS011;59382;43.852;25.952;2024-02-21T02:28:19;22.40;;;9.02;;
71558;SDS011;59382;43.852;25.952;2024-02-21T02:30:46;15.18;;;7.85;;
71558;SDS011;59382;43.852;25.952;2024-02-21T02:33:12;18.90;;;8.30;;
71558;SDS011;59382;43.852;25.952;2024-02-21T02:35:38;14.32;;;8.15;;
71558;SDS011;59382;43.852;25.952;2024-02-21T02:38:04;22.08;;;9.10;;
71558;SDS011;59382;43.852;25.952;2024-02-21T02:40:30;14.10;;;7.78;;
71558;SDS011;59382;43.852;25.952;2024-02-21T02:42:56;23.23;;;8.73;;
71558;SDS011;59382;43.852;25.952;2024-02-21T02:45:22;16.48;;;8.48;;
71558;SDS011;59382;43.852;25.952;2024-02-21T02:47:49;18.23;;;8.43;;
71558;SDS011;59382;43.852;25.952;2024-02-21T02:50:14;14.23;;;8.15;;
71558;SDS011;59382;43.852;25.952;2024-02-21T02:52:40;19.73;;;8.25;;
71558;SDS011;59382;43.852;25.952;2024-02-21T02:55:07;15.57;;;8.48;;
71558;SDS011;59382;43.852;25.952;2024-02-21T02:57:33;16.58;;;7.95;;
71558;SDS011;59382;43.852;25.952;2024-02-21T02:59:58;13.80;;;8.40;;
71558;SDS011;59382;43.852;25.952;2024-02-21T03:02:24;17.95;;;8.88;;
71558;SDS011;59382;43.852;25.952;2024-02-21T03:04:49;19.98;;;9.63;;
71558;SDS011;59382;43.852;25.952;2024-02-21T03:07:15;15.02;;;8.60;;
71558;SDS011;59382;43.852;25.952;2024-02-21T03:09:41;18.08;;;8.13;;
71558;SDS011;59382;43.852;25.952;2024-02-21T03:12:10;13.80;;;8.02;;
71558;SDS011;59382;43.852;25.952;2024-02-21T03:14:36;17.42;;;8.38;;
71558;SDS011;59382;43.852;25.952;2024-02-21T03:17:02;18.17;;;9.63;;
71558;SDS011;59382;43.852;25.952;2024-02-21T03:19:28;14.63;;;8.02;;
71558;SDS011;59382;43.852;25.952;2024-02-21T03:21:54;15.00;;;7.82;;
71558;SDS011;59382;43.852;25.952;2024-02-21T03:24:20;18.88;;;8.27;;
71558;SDS011;59382;43.852;25.952;2024-02-21T03:26:47;15.57;;;8.27;;
71558;SDS011;59382;43.852;25.952;2024-02-21T03:29:14;17.60;;;8.85;;
71558;SDS011;59382;43.852;25.952;2024-02-21T03:31:40;13.07;;;6.97;;
71558;SDS011;59382;43.852;25.952;2024-02-21T03:34:06;17.20;;;8.10;;
71558;SDS011;59382;43.852;25.952;2024-02-21T03:36:32;13.25;;;7.72;;
71558;SDS011;59382;43.852;25.952;2024-02-21T03:38:57;12.30;;;6.60;;
71558;SDS011;59382;43.852;25.952;2024-02-21T03:41:23;21.02;;;9.80;;
71558;SDS011;59382;43.852;25.952;2024-02-21T03:43:48;19.35;;;8.35;;
71558;SDS011;59382;43.852;25.952;2024-02-21T03:46:14;15.52;;;8.55;;
71558;SDS011;59382;43.852;25.952;2024-02-21T03:48:40;15.45;;;8.57;;
71558;SDS011;59382;43.852;25.952;2024-02-21T03:51:06;13.57;;;7.18;;
71558;SDS011;59382;43.852;25.952;2024-02-21T03:53:32;17.63;;;8.02;;
71558;SDS011;59382;43.852;25.952;2024-02-21T03:56:00;17.40;;;8.55;;
71558;SDS011;59382;43.852;25.952;2024-02-21T03:58:29;18.15;;;8.27;;
71558;SDS011;59382;43.852;25.952;2024-02-21T04:00:59;18.05;;;9.50;;
71558;SDS011;59382;43.852;25.952;2024-02-21T04:03:26;21.88;;;9.10;;
71558;SDS011;59382;43.852;25.952;2024-02-21T04:05:52;15.30;;;8.00;;
71558;SDS011;59382;43.852;25.952;2024-02-21T04:08:18;19.73;;;9.05;;
71558;SDS011;59382;43.852;25.952;2024-02-21T04:10:43;17.70;;;8.77;;
71558;SDS011;59382;43.852;25.952;2024-02-21T04:13:09;17.92;;;8.32;;
71558;SDS011;59382;43.852;25.952;2024-02-21T04:15:34;15.75;;;9.13;;
71558;SDS011;59382;43.852;25.952;2024-02-21T04:18:00;17.20;;;9.02;;
71558;SDS011;59382;43.852;25.952;2024-02-21T04:20:26;21.80;;;10.63;;
71558;SDS011;59382;43.852;25.952;2024-02-21T04:22:51;19.42;;;9.82;;
71558;SDS011;59382;43.852;25.952;2024-02-21T04:25:17;18.17;;;8.38;;
71558;SDS011;59382;43.852;25.952;2024-02-21T04:27:42;14.48;;;7.72;;
71558;SDS011;59382;43.852;25.952;2024-02-21T04:30:09;15.18;;;8.68;;
71558;SDS011;59382;43.852;25.952;2024-02-21T04:32:34;14.88;;;7.90;;
71558;SDS011;59382;43.852;25.952;2024-02-21T04:35:00;17.25;;;8.82;;
71558;SDS011;59382;43.852;25.952;2024-02-21T04:37:26;15.45;;;8.60;;
71558;SDS011;59382;43.852;25.952;2024-02-21T04:39:52;14.88;;;8.18;;
71558;SDS011;59382;43.852;25.952;2024-02-21T04:42:17;16.60;;;10.02;;
71558;SDS011;59382;43.852;25.952;2024-02-21T04:44:43;17.45;;;9.60;;
71558;SDS011;59382;43.852;25.952;2024-02-21T04:47:08;18.88;;;8.02;;
71558;SDS011;59382;43.852;25.952;2024-02-21T04:49:34;18.23;;;9.05;;
71558;SDS011;59382;43.852;25.952;2024-02-21T04:52:00;21.40;;;9.60;;
71558;SDS011;59382;43.852;25.952;2024-02-21T04:54:26;18.58;;;9.70;;
71558;SDS011;59382;43.852;25.952;2024-02-21T04:56:52;21.30;;;9.02;;
71558;SDS011;59382;43.852;25.952;2024-02-21T04:59:17;19.23;;;8.52;;
71558;SDS011;59382;43.852;25.952;2024-02-21T05:01:43;16.38;;;8.43;;
71558;SDS011;59382;43.852;25.952;2024-02-21T05:04:09;17.48;;;8.25;;
71558;SDS011;59382;43.852;25.952;2024-02-21T05:06:38;25.55;;;9.18;;
71558;SDS011;59382;43.852;25.952;2024-02-21T05:09:07;16.30;;;8.55;;
71558;SDS011;59382;43.852;25.952;2024-02-21T05:11:34;15.88;;;8.52;;
71558;SDS011;59382;43.852;25.952;2024-02-21T05:14:01;19.48;;;9.07;;
71558;SDS011;59382;43.852;25.952;2024-02-21T05:16:26;13.10;;;7.97;;
71558;SDS011;59382;43.852;25.952;2024-02-21T05:18:52;18.17;;;7.20;;
71558;SDS011;59382;43.852;25.952;2024-02-21T05:21:17;22.30;;;8.10;;
71558;SDS011;59382;43.852;25.952;2024-02-21T05:23:43;14.82;;;8.15;;
71558;SDS011;59382;43.852;25.952;2024-02-21T05:26:08;14.88;;;7.88;;
71558;SDS011;59382;43.852;25.952;2024-02-21T05:28:34;17.27;;;9.20;;
71558;SDS011;59382;43.852;25.952;2024-02-21T05:31:00;19.58;;;10.32;;
71558;SDS011;59382;43.852;25.952;2024-02-21T05:33:26;15.35;;;9.52;;
71558;SDS011;59382;43.852;25.952;2024-02-21T05:35:51;18.67;;;10.00;;
71558;SDS011;59382;43.852;25.952;2024-02-21T05:38:17;18.98;;;7.95;;
71558;SDS011;59382;43.852;25.952;2024-02-21T05:40:44;19.35;;;9.00;;
71558;SDS011;59382;43.852;25.952;2024-02-21T05:43:10;19.90;;;8.27;;
71558;SDS011;59382;43.852;25.952;2024-02-21T05:45:35;23.55;;;8.50;;
71558;SDS011;59382;43.852;25.952;2024-02-21T05:48:02;18.20;;;9.57;;
71558;SDS011;59382;43.852;25.952;2024-02-21T05:50:28;14.35;;;7.93;;
71558;SDS011;59382;43.852;25.952;2024-02-21T05:52:54;16.17;;;8.15;;
71558;SDS011;59382;43.852;25.952;2024-02-21T05:55:20;20.50;;;9.20;;
71558;SDS011;59382;43.852;25.952;2024-02-21T05:57:46;17.55;;;9.98;;
71558;SDS011;59382;43.852;25.952;2024-02-21T06:00:12;21.02;;;10.68;;
71558;SDS011;59382;43.852;25.952;2024-02-21T06:02:38;17.73;;;9.60;;
71558;SDS011;59382;43.852;25.952;2024-02-21T06:05:05;17.92;;;9.68;;
71558;SDS011;59382;43.852;25.952;2024-02-21T06:07:32;16.85;;;8.70;;
71558;SDS011;59382;43.852;25.952;2024-02-21T06:09:58;18.75;;;9.65;;
71558;SDS011;59382;43.852;25.952;2024-02-21T06:12:25;17.17;;;8.48;;
71558;SDS011;59382;43.852;25.952;2024-02-21T06:14:50;19.73;;;8.65;;
71558;SDS011;59382;43.852;25.952;2024-02-21T06:17:16;15.88;;;8.45;;
71558;SDS011;59382;43.852;25.952;2024-02-21T06:19:42;17.33;;;8.32;;
71558;SDS011;59382;43.852;25.952;2024-02-21T06:22:08;16.67;;;9.23;;
71558;SDS011;59382;43.852;25.952;2024-02-21T06:24:35;15.82;;;9.38;;
71558;SDS011;59382;43.852;25.952;2024-02-21T06:27:01;30.92;;;11.60;;
71558;SDS011;59382;43.852;25.952;2024-02-21T06:29:33;23.70;;;11.32;;
71558;SDS011;59382;43.852;25.952;2024-02-21T06:31:59;23.92;;;10.27;;
71558;SDS011;59382;43.852;25.952;2024-02-21T06:34:25;28.08;;;11.32;;
71558;SDS011;59382;43.852;25.952;2024-02-21T06:36:51;19.90;;;10.90;;
71558;SDS011;59382;43.852;25.952;2024-02-21T06:39:16;23.92;;;11.20;;
71558;SDS011;59382;43.852;25.952;2024-02-21T06:41:42;19.30;;;9.48;;
71558;SDS011;59382;43.852;25.952;2024-02-21T06:44:08;26.38;;;11.13;;
71558;SDS011;59382;43.852;25.952;2024-02-21T06:46:34;20.33;;;10.55;;
71558;SDS011;59382;43.852;25.952;2024-02-21T06:49:00;19.83;;;10.07;;
71558;SDS011;59382;43.852;25.952;2024-02-21T06:51:27;18.38;;;10.13;;
71558;SDS011;59382;43.852;25.952;2024-02-21T06:53:53;18.90;;;9.48;;
71558;SDS011;59382;43.852;25.952;2024-02-21T06:56:19;18.70;;;9.98;;
71558;SDS011;59382;43.852;25.952;2024-02-21T06:58:44;22.67;;;10.68;;
71558;SDS011;59382;43.852;25.952;2024-02-21T07:01:10;22.80;;;10.68;;
71558;SDS011;59382;43.852;25.952;2024-02-21T07:03:36;16.08;;;9.73;;
71558;SDS011;59382;43.852;25.952;2024-02-21T07:06:02;25.88;;;11.63;;
71558;SDS011;59382;43.852;25.952;2024-02-21T07:08:29;19.98;;;11.20;;
71558;SDS011;59382;43.852;25.952;2024-02-21T07:10:55;21.17;;;9.77;;
71558;SDS011;59382;43.852;25.952;2024-02-21T07:13:20;22.23;;;11.20;;
71558;SDS011;59382;43.852;25.952;2024-02-21T07:15:48;18.02;;;9.35;;
71558;SDS011;59382;43.852;25.952;2024-02-21T07:18:14;16.98;;;9.30;;
71558;SDS011;59382;43.852;25.952;2024-02-21T07:20:39;20.05;;;9.27;;
71558;SDS011;59382;43.852;25.952;2024-02-21T07:23:06;21.50;;;10.02;;
71558;SDS011;59382;43.852;25.952;2024-02-21T07:25:32;26.80;;;14.35;;
71558;SDS011;59382;43.852;25.952;2024-02-21T07:27:58;20.77;;;11.10;;
71558;SDS011;59382;43.852;25.952;2024-02-21T07:30:23;24.48;;;12.50;;
71558;SDS011;59382;43.852;25.952;2024-02-21T07:32:49;23.05;;;12.43;;
71558;SDS011;59382;43.852;25.952;2024-02-21T07:35:16;29.95;;;16.88;;
71558;SDS011;59382;43.852;25.952;2024-02-21T07:37:42;29.27;;;16.38;;
71558;SDS011;59382;43.852;25.952;2024-02-21T07:40:16;37.63;;;19.45;;
71558;SDS011;59382;43.852;25.952;2024-02-21T07:42:42;34.70;;;18.33;;
71558;SDS011;59382;43.852;25.952;2024-02-21T07:45:09;34.58;;;18.20;;
71558;SDS011;59382;43.852;25.952;2024-02-21T07:47:35;38.58;;;18.38;;
71558;SDS011;59382;43.852;25.952;2024-02-21T07:50:04;36.55;;;18.00;;
71558;SDS011;59382;43.852;25.952;2024-02-21T07:52:31;36.00;;;15.52;;
71558;SDS011;59382;43.852;25.952;2024-02-21T07:54:56;41.17;;;16.90;;
71558;SDS011;59382;43.852;25.952;2024-02-21T07:57:22;25.60;;;13.85;;
71558;SDS011;59382;43.852;25.952;2024-02-21T07:59:48;19.83;;;10.63;;
71558;SDS011;59382;43.852;25.952;2024-02-21T08:02:16;22.08;;;12.10;;
71558;SDS011;59382;43.852;25.952;2024-02-21T08:04:42;19.50;;;10.32;;
71558;SDS011;59382;43.852;25.952;2024-02-21T08:07:08;22.27;;;11.55;;
71558;SDS011;59382;43.852;25.952;2024-02-21T08:09:34;24.50;;;9.57;;
71558;SDS011;59382;43.852;25.952;2024-02-21T08:12:01;21.00;;;11.25;;
71558;SDS011;59382;43.852;25.952;2024-02-21T08:14:27;24.48;;;12.18;;
71558;SDS011;59382;43.852;25.952;2024-02-21T08:16:52;23.20;;;10.75;;
71558;SDS011;59382;43.852;25.952;2024-02-21T08:19:24;22.70;;;10.77;;
71558;SDS011;59382;43.852;25.952;2024-02-21T08:21:49;26.55;;;10.65;;
71558;SDS011;59382;43.852;25.952;2024-02-21T08:24:15;19.00;;;8.80;;
71558;SDS011;59382;43.852;25.952;2024-02-21T08:26:41;24.65;;;9.63;;
71558;SDS011;59382;43.852;25.952;2024-02-21T08:29:06;20.20;;;10.02;;
71558;SDS011;59382;43.852;25.952;2024-02-21T08:31:32;21.17;;;10.45;;
71558;SDS011;59382;43.852;25.952;2024-02-21T08:33:59;18.40;;;9.10;;
71558;SDS011;59382;43.852;25.952;2024-02-21T08:36:29;14.18;;;8.88;;
71558;SDS011;59382;43.852;25.952;2024-02-21T08:38:58;15.00;;;8.18;;
71558;SDS011;59382;43.852;25.952;2024-02-21T08:41:24;20.15;;;8.13;;
71558;SDS011;59382;43.852;25.952;2024-02-21T08:43:50;14.90;;;8.57;;
71558;SDS011;59382;43.852;25.952;2024-02-21T08:46:17;15.30;;;7.43;;
71558;SDS011;59382;43.852;25.952;2024-02-21T08:48:43;17.75;;;7.80;;
71558;SDS011;59382;43.852;25.952;2024-02-21T08:51:11;14.85;;;8.00;;
71558;SDS011;59382;43.852;25.952;2024-02-21T08:53:37;17.58;;;8.50;;
71558;SDS011;59382;43.852;25.952;2024-02-21T08:56:04;16.50;;;8.65;;
71558;SDS011;59382;43.852;25.952;2024-02-21T08:58:30;11.93;;;6.57;;
71558;SDS011;59382;43.852;25.952;2024-02-21T09:00:56;15.25;;;7.47;;
71558;SDS011;59382;43.852;25.952;2024-02-21T09:03:22;14.38;;;7.80;;
71558;SDS011;59382;43.852;25.952;2024-02-21T09:05:47;16.38;;;8.45;;
71558;SDS011;59382;43.852;25.952;2024-02-21T09:08:14;16.08;;;7.53;;
71558;SDS011;59382;43.852;25.952;2024-02-21T09:10:39;17.70;;;8.10;;
71558;SDS011;59382;43.852;25.952;2024-02-21T09:13:05;12.57;;;7.57;;
71558;SDS011;59382;43.852;25.952;2024-02-21T09:15:32;21.67;;;10.18;;
71558;SDS011;59382;43.852;25.952;2024-02-21T09:17:58;18.70;;;8.85;;
71558;SDS011;59382;43.852;25.952;2024-02-21T09:20:23;17.50;;;9.90;;
71558;SDS011;59382;43.852;25.952;2024-02-21T09:22:49;16.27;;;9.65;;
71558;SDS011;59382;43.852;25.952;2024-02-21T09:25:14;20.38;;;9.55;;
71558;SDS011;59382;43.852;25.952;2024-02-21T09:27:40;15.55;;;7.88;;
71558;SDS011;59382;43.852;25.952;2024-02-21T09:30:06;16.05;;;8.25;;
71558;SDS011;59382;43.852;25.952;2024-02-21T09:32:32;16.25;;;8.43;;
71558;SDS011;59382;43.852;25.952;2024-02-21T09:35:00;17.20;;;8.75;;
71558;SDS011;59382;43.852;25.952;2024-02-21T09:37:25;18.45;;;9.23;;
71558;SDS011;59382;43.852;25.952;2024-02-21T09:39:52;18.90;;;9.55;;
71558;SDS011;59382;43.852;25.952;2024-02-21T09:42:20;17.63;;;8.82;;
71558;SDS011;59382;43.852;25.952;2024-02-21T09:44:48;15.15;;;9.00;;
71558;SDS011;59382;43.852;25.952;2024-02-21T09:47:17;24.67;;;8.23;;
71558;SDS011;59382;43.852;25.952;2024-02-21T09:49:47;14.73;;;7.40;;
71558;SDS011;59382;43.852;25.952;2024-02-21T09:52:13;16.90;;;8.52;;
71558;SDS011;59382;43.852;25.952;2024-02-21T09:54:41;13.40;;;7.70;;
71558;SDS011;59382;43.852;25.952;2024-02-21T09:57:10;14.88;;;8.20;;
71558;SDS011;59382;43.852;25.952;2024-02-21T09:59:36;15.18;;;8.77;;
71558;SDS011;59382;43.852;25.952;2024-02-21T10:02:03;14.75;;;8.60;;
71558;SDS011;59382;43.852;25.952;2024-02-21T10:04:30;12.13;;;6.80;;
71558;SDS011;59382;43.852;25.952;2024-02-21T10:06:55;14.15;;;7.85;;
71558;SDS011;59382;43.852;25.952;2024-02-21T10:11:53;10.02;;;6.43;;
71558;SDS011;59382;43.852;25.952;2024-02-21T10:14:20;14.43;;;7.38;;
71558;SDS011;59382;43.852;25.952;2024-02-21T10:16:56;14.32;;;8.25;;
71558;SDS011;59382;43.852;25.952;2024-02-21T10:19:25;15.63;;;7.20;;
71558;SDS011;59382;43.852;25.952;2024-02-21T10:21:59;12.63;;;7.30;;
71558;SDS011;59382;43.852;25.952;2024-02-21T10:24:26;18.05;;;6.55;;
71558;SDS011;59382;43.852;25.952;2024-02-21T10:26:59;25.98;;;8.50;;
71558;SDS011;59382;43.852;25.952;2024-02-21T10:29:29;21.80;;;7.53;;
71558;SDS011;59382;43.852;25.952;2024-02-21T10:32:12;13.95;;;6.75;;
71558;SDS011;59382;43.852;25.952;2024-02-21T10:34:40;13.95;;;7.55;;
71558;SDS011;59382;43.852;25.952;2024-02-21T10:37:07;12.38;;;6.40;;
71558;SDS011;59382;43.852;25.952;2024-02-21T10:39:35;13.05;;;7.30;;
71558;SDS011;59382;43.852;25.952;2024-02-21T10:42:03;13.48;;;6.80;;
71558;SDS011;59382;43.852;25.952;2024-02-21T10:44:30;15.73;;;7.78;;
71558;SDS011;59382;43.852;25.952;2024-02-21T10:46:58;16.88;;;8.15;;
71558;SDS011;59382;43.852;25.952;2024-02-21T10:49:24;15.85;;;8.57;;
71558;SDS011;59382;43.852;25.952;2024-02-21T10:51:54;15.93;;;8.65;;
71558;SDS011;59382;43.852;25.952;2024-02-21T10:57:19;17.15;;;8.38;;
71558;SDS011;59382;43.852;25.952;2024-02-21T10:59:47;20.48;;;9.10;;
71558;SDS011;59382;43.852;25.952;2024-02-21T11:02:13;17.42;;;8.57;;
71558;SDS011;59382;43.852;25.952;2024-02-21T11:04:40;19.98;;;8.93;;
71558;SDS011;59382;43.852;25.952;2024-02-21T11:07:07;20.10;;;10.13;;
71558;SDS011;59382;43.852;25.952;2024-02-21T11:09:33;19.40;;;10.35;;
71558;SDS011;59382;43.852;25.952;2024-02-21T11:12:01;20.73;;;11.02;;
71558;SDS011;59382;43.852;25.952;2024-02-21T11:14:28;19.90;;;9.55;;
71558;SDS011;59382;43.852;25.952;2024-02-21T11:16:57;21.50;;;9.88;;
71558;SDS011;59382;43.852;25.952;2024-02-21T11:19:27;25.48;;;10.23;;
71558;SDS011;59382;43.852;25.952;2024-02-21T11:21:54;20.85;;;9.85;;
71558;SDS011;59382;43.852;25.952;2024-02-21T11:27:19;22.10;;;10.30;;
71558;SDS011;59382;43.852;25.952;2024-02-21T11:29:46;18.15;;;9.93;;
71558;SDS011;59382;43.852;25.952;2024-02-21T11:32:16;21.63;;;10.60;;
71558;SDS011;59382;43.852;25.952;2024-02-21T11:37:30;23.10;;;10.80;;
71558;SDS011;59382;43.852;25.952;2024-02-21T11:40:02;17.60;;;10.48;;
71558;SDS011;59382;43.852;25.952;2024-02-21T11:42:29;21.92;;;10.02;;
71558;SDS011;59382;43.852;25.952;2024-02-21T11:44:56;23.20;;;10.38;;
71558;SDS011;59382;43.852;25.952;2024-02-21T11:47:22;23.92;;;11.05;;
71558;SDS011;59382;43.852;25.952;2024-02-21T11:49:49;27.02;;;11.48;;
71558;SDS011;59382;43.852;25.952;2024-02-21T11:52:19;25.83;;;11.52;;
71558;SDS011;59382;43.852;25.952;2024-02-21T11:54:47;26.35;;;11.00;;
71558;SDS011;59382;43.852;25.952;2024-02-21T11:57:13;23.95;;;11.77;;
71558;SDS011;59382;43.852;25.952;2024-02-21T11:59:39;34.60;;;13.10;;
71558;SDS011;59382;43.852;25.952;2024-02-21T12:02:06;25.67;;;11.77;;
71558;SDS011;59382;43.852;25.952;2024-02-21T12:04:31;21.75;;;9.82;;
71558;SDS011;59382;43.852;25.952;2024-02-21T12:06:57;22.35;;;9.80;;
71558;SDS011;59382;43.852;25.952;2024-02-21T12:09:24;15.15;;;8.98;;
71558;SDS011;59382;43.852;25.952;2024-02-21T12:11:57;20.27;;;8.48;;
71558;SDS011;59382;43.852;25.952;2024-02-21T12:16:53;11.77;;;6.15;;
71558;SDS011;59382;43.852;25.952;2024-02-21T12:19:19;16.10;;;6.75;;
71558;SDS011;59382;43.852;25.952;2024-02-21T12:21:45;11.65;;;7.07;;
71558;SDS011;59382;43.852;25.952;2024-02-21T12:24:14;11.93;;;7.40;;
71558;SDS011;59382;43.852;25.952;2024-02-21T12:26:40;13.82;;;6.60;;
71558;SDS011;59382;43.852;25.952;2024-02-21T12:29:06;14.00;;;7.20;;
71558;SDS011;59382;43.852;25.952;2024-02-21T12:31:35;16.92;;;7.25;;
71558;SDS011;59382;43.852;25.952;2024-02-21T12:34:02;21.10;;;9.63;;
71558;SDS011;59382;43.852;25.952;2024-02-21T12:36:27;13.40;;;7.47;;
71558;SDS011;59382;43.852;25.952;2024-02-21T12:38:53;16.40;;;7.03;;
71558;SDS011;59382;43.852;25.952;2024-02-21T12:41:18;18.70;;;7.72;;
71558;SDS011;59382;43.852;25.952;2024-02-21T12:43:44;13.80;;;7.82;;
71558;SDS011;59382;43.852;25.952;2024-02-21T12:46:09;14.43;;;7.68;;
71558;SDS011;59382;43.852;25.952;2024-02-21T12:48:35;16.15;;;7.28;;
71558;SDS011;59382;43.852;25.952;2024-02-21T12:51:01;12.32;;;7.82;;
71558;SDS011;59382;43.852;25.952;2024-02-21T12:53:26;11.75;;;6.88;;
71558;SDS011;59382;43.852;25.952;2024-02-21T12:55:52;12.20;;;7.43;;
71558;SDS011;59382;43.852;25.952;2024-02-21T12:58:18;12.50;;;7.13;;
71558;SDS011;59382;43.852;25.952;2024-02-21T13:00:44;17.80;;;8.63;;
71558;SDS011;59382;43.852;25.952;2024-02-21T13:03:09;15.13;;;8.18;;
71558;SDS011;59382;43.852;25.952;2024-02-21T13:05:35;13.55;;;9.40;;
71558;SDS011;59382;43.852;25.952;2024-02-21T13:08:01;13.55;;;9.15;;
71558;SDS011;59382;43.852;25.952;2024-02-21T13:10:27;18.73;;;8.93;;
71558;SDS011;59382;43.852;25.952;2024-02-21T13:12:53;20.30;;;9.73;;
71558;SDS011;59382;43.852;25.952;2024-02-21T13:15:19;20.38;;;10.32;;
71558;SDS011;59382;43.852;25.952;2024-02-21T13:17:45;19.77;;;9.52;;
71558;SDS011;59382;43.852;25.952;2024-02-21T13:20:10;14.75;;;8.23;;
71558;SDS011;59382;43.852;25.952;2024-02-21T13:22:37;15.48;;;8.35;;
71558;SDS011;59382;43.852;25.952;2024-02-21T13:25:03;15.63;;;7.82;;
71558;SDS011;59382;43.852;25.952;2024-02-21T13:27:32;17.67;;;7.78;;
71558;SDS011;59382;43.852;25.952;2024-02-21T13:29:58;18.95;;;7.50;;
71558;SDS011;59382;43.852;25.952;2024-02-21T13:32:25;15.23;;;7.28;;
71558;SDS011;59382;43.852;25.952;2024-02-21T13:34:51;19.65;;;8.23;;
71558;SDS011;59382;43.852;25.952;2024-02-21T13:37:17;17.15;;;7.72;;
71558;SDS011;59382;43.852;25.952;2024-02-21T13:39:43;18.63;;;8.07;;
71558;SDS011;59382;43.852;25.952;2024-02-21T13:42:08;16.38;;;8.32;;
71558;SDS011;59382;43.852;25.952;2024-02-21T13:44:34;17.33;;;8.18;;
71558;SDS011;59382;43.852;25.952;2024-02-21T13:47:00;15.85;;;7.57;;
71558;SDS011;59382;43.852;25.952;2024-02-21T13:49:25;14.20;;;7.32;;
71558;SDS011;59382;43.852;25.952;2024-02-21T13:51:51;19.92;;;7.35;;
71558;SDS011;59382;43.852;25.952;2024-02-21T13:54:17;13.35;;;7.05;;
71558;SDS011;59382;43.852;25.952;2024-02-21T13:56:44;24.23;;;7.50;;
71558;SDS011;59382;43.852;25.952;2024-02-21T13:59:11;12.68;;;7.55;;
71558;SDS011;59382;43.852;25.952;2024-02-21T14:01:39;14.15;;;7.90;;
71558;SDS011;59382;43.852;25.952;2024-02-21T14:04:04;22.58;;;10.18;;
71558;SDS011;59382;43.852;25.952;2024-02-21T14:06:30;22.10;;;8.10;;
71558;SDS011;59382;43.852;25.952;2024-02-21T14:08:55;19.88;;;7.45;;
71558;SDS011;59382;43.852;25.952;2024-02-21T14:11:21;14.32;;;7.07;;
71558;SDS011;59382;43.852;25.952;2024-02-21T14:13:46;13.05;;;6.72;;
71558;SDS011;59382;43.852;25.952;2024-02-21T14:16:12;15.20;;;6.45;;
71558;SDS011;59382;43.852;25.952;2024-02-21T14:18:40;22.08;;;7.70;;
71558;SDS011;59382;43.852;25.952;2024-02-21T14:21:07;17.58;;;7.43;;
71558;SDS011;59382;43.852;25.952;2024-02-21T14:23:36;13.35;;;6.80;;
71558;SDS011;59382;43.852;25.952;2024-02-21T14:26:04;21.63;;;7.40;;
71558;SDS011;59382;43.852;25.952;2024-02-21T14:28:30;14.65;;;6.28;;